createdAt,value
2023-02-13T00:00:50.488Z,9.77
2023-02-13T00:03:17.120Z,10.03
2023-02-13T00:05:43.706Z,9.98
2023-02-13T00:08:10.258Z,9.77
2023-02-13T00:10:37.106Z,9.56
2023-02-13T00:13:03.638Z,9.71
2023-02-13T00:15:31.042Z,9.72
2023-02-13T00:17:57.610Z,9.37
2023-02-13T00:20:24.152Z,9.54
2023-02-13T00:22:50.818Z,9.69
2023-02-13T00:25:17.596Z,9.88
2023-02-13T00:27:44.204Z,9.68
2023-02-13T00:30:11.237Z,9.74
2023-02-13T00:32:37.913Z,9.00
2023-02-13T00:35:04.731Z,9.29
2023-02-13T00:37:31.294Z,9.29
2023-02-13T00:39:57.920Z,9.48
2023-02-13T00:42:26.518Z,9.42
2023-02-13T00:44:53.971Z,9.55
2023-02-13T00:47:21.252Z,9.76
2023-02-13T00:49:47.822Z,9.37
2023-02-13T00:52:14.500Z,9.29
2023-02-13T00:54:41.124Z,9.36
2023-02-13T00:57:07.676Z,9.05
2023-02-13T00:59:34.174Z,9.26
2023-02-13T01:02:00.722Z,9.34
2023-02-13T01:04:27.288Z,9.67
2023-02-13T01:06:53.846Z,9.43
2023-02-13T01:09:20.357Z,9.11
2023-02-13T01:11:46.851Z,9.20
2023-02-13T01:14:13.315Z,9.39
2023-02-13T01:16:40.024Z,9.48
2023-02-13T01:19:06.576Z,9.55
2023-02-13T01:21:33.249Z,9.38
2023-02-13T01:24:03.314Z,8.97
2023-02-13T01:26:30.034Z,9.21
2023-02-13T01:28:57.993Z,9.07
2023-02-13T01:31:24.842Z,9.04
2023-02-13T01:33:51.806Z,9.18
2023-02-13T01:36:18.266Z,9.48
2023-02-13T01:38:44.777Z,9.47
2023-02-13T01:41:11.479Z,9.60
2023-02-13T01:43:46.263Z,9.45
2023-02-13T01:46:17.665Z,9.54
2023-02-13T01:48:44.827Z,9.35
2023-02-13T01:51:20.182Z,9.38
2023-02-13T01:53:53.632Z,9.47
2023-02-13T01:56:26.779Z,9.36
2023-02-13T01:58:57.173Z,9.42
2023-02-13T02:01:26.870Z,9.43
2023-02-13T02:04:03.880Z,9.33
2023-02-13T02:06:35.959Z,9.21
2023-02-13T02:09:10.132Z,9.01
2023-02-13T02:11:46.167Z,9.04
2023-02-13T02:14:12.922Z,8.87
2023-02-13T02:16:39.460Z,8.77
2023-02-13T02:19:14.837Z,8.69
2023-02-13T02:22:19.205Z,8.69
2023-02-13T02:25:22.744Z,8.47
2023-02-13T02:28:06.136Z,8.44
2023-02-13T02:30:41.919Z,8.45
2023-02-13T02:33:30.710Z,8.32
2023-02-13T02:36:18.057Z,8.16
2023-02-13T02:39:03.825Z,8.06
2023-02-13T02:41:49.499Z,7.95
2023-02-13T02:44:37.131Z,7.90
2023-02-13T02:47:45.347Z,7.80
2023-02-13T02:50:21.116Z,7.75
2023-02-13T02:53:23.620Z,7.68
2023-02-13T02:56:06.952Z,7.54
2023-02-13T02:58:57.933Z,7.51
2023-02-13T03:01:47.416Z,7.42
2023-02-13T03:04:38.582Z,7.37
2023-02-13T03:07:09.654Z,7.15
2023-02-13T03:10:00.049Z,7.01
2023-02-13T03:12:54.487Z,6.99
2023-02-13T03:15:23.439Z,6.90
2023-02-13T03:18:08.459Z,6.87
2023-02-13T03:21:20.655Z,6.86
2023-02-13T03:23:58.253Z,6.84
2023-02-13T03:26:55.710Z,6.67
2023-02-13T03:29:56.711Z,6.77
2023-02-13T03:32:36.124Z,6.59
2023-02-13T03:35:40.079Z,6.46
2023-02-13T03:38:16.226Z,6.38
2023-02-13T03:41:09.463Z,6.29
2023-02-13T03:43:52.957Z,6.40
2023-02-13T03:46:20.777Z,6.47
2023-02-13T03:49:06.952Z,6.37
2023-02-13T03:51:41.792Z,6.25
2023-02-13T03:54:46.803Z,6.24
2023-02-13T03:57:35.540Z,6.20
2023-02-13T04:00:05.032Z,6.27
2023-02-13T04:02:37.382Z,6.15
2023-02-13T04:05:18.929Z,6.05
2023-02-13T04:07:45.483Z,5.98
2023-02-13T04:10:16.956Z,6.06
2023-02-13T04:13:04.936Z,6.04
2023-02-13T04:15:38.562Z,5.79
2023-02-13T04:18:11.048Z,5.73
2023-02-13T04:20:38.557Z,5.65
2023-02-13T04:23:10.709Z,5.45
2023-02-13T04:25:39.354Z,5.54
2023-02-13T04:28:06.142Z,5.56
2023-02-13T04:30:33.924Z,5.64
2023-02-13T04:33:00.476Z,5.73
2023-02-13T04:35:27.070Z,5.62
2023-02-13T04:37:53.690Z,5.62
2023-02-13T04:40:20.310Z,5.60
2023-02-13T04:42:50.320Z,5.57
2023-02-13T04:45:17.513Z,5.61
2023-02-13T04:47:50.100Z,5.57
2023-02-13T04:50:16.865Z,5.30
2023-02-13T04:52:43.433Z,5.33
2023-02-13T04:55:10.049Z,5.32
2023-02-13T04:57:36.588Z,5.22
2023-02-13T05:00:05.926Z,5.29
2023-02-13T05:02:32.681Z,5.24
2023-02-13T05:04:59.268Z,5.29
2023-02-13T05:07:25.917Z,5.31
2023-02-13T05:09:52.481Z,5.38
2023-02-13T05:12:19.037Z,5.30
2023-02-13T05:14:45.714Z,5.32
2023-02-13T05:17:12.210Z,5.29
2023-02-13T05:19:38.752Z,5.03
2023-02-13T05:22:24.012Z,4.88
2023-02-13T05:24:50.561Z,4.95
2023-02-13T05:27:17.303Z,4.98
2023-02-13T05:29:43.851Z,4.80
2023-02-13T05:32:10.462Z,4.62
2023-02-13T05:34:37.005Z,4.82
2023-02-13T05:37:03.598Z,5.06
2023-02-13T05:39:30.127Z,4.97
2023-02-13T05:41:56.677Z,4.54
2023-02-13T05:44:23.224Z,4.44
2023-02-13T05:46:49.784Z,4.38
2023-02-13T05:49:16.578Z,4.40
2023-02-13T05:51:43.867Z,4.23
2023-02-13T05:54:10.469Z,4.32
2023-02-13T05:56:37.416Z,4.21
2023-02-13T05:59:04.409Z,4.35
2023-02-13T06:01:30.974Z,4.34
2023-02-13T06:03:59.321Z,4.16
2023-02-13T06:06:26.959Z,4.25
2023-02-13T06:08:53.752Z,4.15
2023-02-13T06:11:20.925Z,4.08
2023-02-13T06:13:47.457Z,4.05
2023-02-13T06:16:14.279Z,4.05
2023-02-13T06:18:40.894Z,4.07
2023-02-13T06:21:07.994Z,4.06
2023-02-13T06:23:34.631Z,4.09
2023-02-13T06:26:05.928Z,4.01
2023-02-13T06:28:33.437Z,4.04
2023-02-13T06:31:00.472Z,3.87
2023-02-13T06:33:27.268Z,3.91
2023-02-13T06:35:53.861Z,3.89
2023-02-13T06:38:21.621Z,3.82
2023-02-13T06:40:49.603Z,3.86
2023-02-13T06:43:17.892Z,3.94
2023-02-13T06:45:47.214Z,3.70
2023-02-13T06:48:14.632Z,3.79
2023-02-13T06:50:41.585Z,3.76
2023-02-13T06:53:08.600Z,3.71
2023-02-13T06:55:36.401Z,3.79
2023-02-13T06:58:03.001Z,3.88
2023-02-13T07:00:29.918Z,3.89
2023-02-13T07:03:02.617Z,4.20
2023-02-13T07:05:29.586Z,4.30
2023-02-13T07:07:56.339Z,4.31
2023-02-13T07:10:23.123Z,4.41
2023-02-13T07:13:00.244Z,4.44
2023-02-13T07:15:33.138Z,4.48
2023-02-13T07:18:00.332Z,4.60
2023-02-13T07:20:27.730Z,4.62
2023-02-13T07:22:58.805Z,4.56
2023-02-13T07:25:25.899Z,4.72
2023-02-13T07:27:52.731Z,4.70
2023-02-13T07:30:19.446Z,5.32
2023-02-13T07:32:45.992Z,6.29
2023-02-13T07:35:12.519Z,6.69
2023-02-13T07:37:39.137Z,5.72
2023-02-13T07:40:06.873Z,7.35
2023-02-13T07:42:34.643Z,8.09
2023-02-13T07:45:01.460Z,8.39
2023-02-13T07:47:28.068Z,8.59
2023-02-13T07:49:54.989Z,9.11
2023-02-13T07:52:21.648Z,8.49
2023-02-13T07:54:48.313Z,8.64
2023-02-13T07:57:17.367Z,8.72
2023-02-13T07:59:44.031Z,8.72
2023-02-13T08:02:14.856Z,9.30
2023-02-13T08:04:46.516Z,9.47
2023-02-13T08:07:17.402Z,10.19
2023-02-13T08:10:04.050Z,10.63
2023-02-13T08:12:32.310Z,10.55
2023-02-13T08:14:58.963Z,9.63
2023-02-13T08:17:25.638Z,8.97
2023-02-13T08:19:52.111Z,8.56
2023-02-13T08:22:18.620Z,8.73
2023-02-13T08:24:45.430Z,10.31
2023-02-13T08:27:14.190Z,11.49
2023-02-13T08:29:41.248Z,11.36
2023-02-13T08:32:08.320Z,11.50
2023-02-13T08:34:35.012Z,11.58
2023-02-13T08:37:02.535Z,12.44
2023-02-13T08:39:29.524Z,11.24
2023-02-13T08:41:56.244Z,11.13
2023-02-13T08:44:22.948Z,11.64
2023-02-13T08:46:49.531Z,11.97
2023-02-13T08:49:16.162Z,12.68
2023-02-13T08:51:42.795Z,12.85
2023-02-13T08:54:09.365Z,12.65
2023-02-13T08:56:35.960Z,13.38
2023-02-13T08:59:02.507Z,13.06
2023-02-13T09:01:29.190Z,12.93
2023-02-13T09:03:55.843Z,14.30
2023-02-13T09:06:22.934Z,13.76
2023-02-13T09:08:49.540Z,12.99
2023-02-13T09:11:16.094Z,13.56
2023-02-13T09:13:42.737Z,13.91
2023-02-13T09:16:11.413Z,14.50
2023-02-13T09:18:37.966Z,14.70
2023-02-13T09:21:07.629Z,14.72
2023-02-13T09:23:37.246Z,15.18
2023-02-13T09:26:08.718Z,14.41
2023-02-13T09:28:36.447Z,14.43
2023-02-13T09:31:32.857Z,14.56
2023-02-13T09:33:59.474Z,16.12
2023-02-13T09:36:26.111Z,16.66
2023-02-13T09:38:55.253Z,17.03
2023-02-13T09:41:32.416Z,18.24
2023-02-13T09:44:05.317Z,15.62
2023-02-13T09:46:37.816Z,14.99
2023-02-13T09:49:30.332Z,14.86
2023-02-13T09:51:58.044Z,17.24
2023-02-13T09:54:26.645Z,16.70
2023-02-13T09:57:22.557Z,17.61
2023-02-13T10:00:13.198Z,16.11
2023-02-13T10:02:59.677Z,17.26
2023-02-13T10:06:01.945Z,17.19
2023-02-13T10:08:46.243Z,17.80
2023-02-13T10:11:31.247Z,16.17
2023-02-13T10:14:14.873Z,15.80
2023-02-13T10:16:44.792Z,16.02
2023-02-13T10:19:29.869Z,19.08
2023-02-13T10:22:04.460Z,17.72
2023-02-13T10:24:56.499Z,18.02
2023-02-13T10:27:35.062Z,17.61
2023-02-13T10:30:20.201Z,17.80
2023-02-13T10:33:21.203Z,19.13
2023-02-13T10:35:59.054Z,18.06
2023-02-13T10:38:30.868Z,18.33
2023-02-13T10:41:28.333Z,18.11
2023-02-13T10:44:32.575Z,18.12
2023-02-13T10:47:18.143Z,17.61
2023-02-13T10:50:13.158Z,18.26
2023-02-13T10:52:55.092Z,19.37
2023-02-13T10:55:26.676Z,21.14
2023-02-13T10:58:20.829Z,17.15
2023-02-13T11:00:59.220Z,18.93
2023-02-13T11:03:27.887Z,19.28
2023-02-13T11:05:56.020Z,21.71
2023-02-13T11:08:24.306Z,22.14
2023-02-13T11:10:51.969Z,19.96
2023-02-13T11:13:22.715Z,17.48
2023-02-13T11:16:16.171Z,21.18
2023-02-13T11:18:49.488Z,20.53
2023-02-13T11:21:31.731Z,23.66
2023-02-13T11:23:58.281Z,20.21
2023-02-13T11:26:33.178Z,18.01
2023-02-13T11:29:02.387Z,19.49
2023-02-13T11:31:32.548Z,21.20
2023-02-13T11:34:18.933Z,21.21
2023-02-13T11:36:45.470Z,23.66
2023-02-13T11:39:22.897Z,22.55
2023-02-13T11:41:52.790Z,22.37
2023-02-13T11:44:27.408Z,19.89
2023-02-13T11:46:56.613Z,22.69
2023-02-13T11:49:26.682Z,22.96
2023-02-13T11:51:56.277Z,20.55
2023-02-13T11:54:45.682Z,22.11
2023-02-13T11:57:36.382Z,20.87
2023-02-13T12:00:37.361Z,22.04
2023-02-13T12:03:31.220Z,23.60
2023-02-13T12:06:16.071Z,21.32
2023-02-13T12:08:47.238Z,22.93
2023-02-13T12:11:29.122Z,23.09
2023-02-13T12:13:56.209Z,22.87
2023-02-13T12:16:38.007Z,23.42
2023-02-13T12:19:11.225Z,22.89
2023-02-13T12:21:56.596Z,22.18
2023-02-13T12:24:45.091Z,22.48
2023-02-13T12:27:42.872Z,21.78
2023-02-13T12:30:16.559Z,21.50
2023-02-13T12:33:03.051Z,21.74
2023-02-13T12:36:02.236Z,21.18
2023-02-13T12:39:03.069Z,21.27
2023-02-13T12:42:12.836Z,23.53
2023-02-13T12:44:53.659Z,20.42
2023-02-13T12:47:59.704Z,21.43
2023-02-13T12:50:36.347Z,23.00
2023-02-13T12:53:09.835Z,21.12
2023-02-13T12:55:50.244Z,22.92
2023-02-13T12:58:38.683Z,24.61
2023-02-13T13:01:39.296Z,21.64
2023-02-13T13:04:14.990Z,21.82
2023-02-13T13:06:44.900Z,20.96
2023-02-13T13:09:28.676Z,23.28
2023-02-13T13:12:04.399Z,25.23
2023-02-13T13:15:19.193Z,22.51
2023-02-13T13:18:10.971Z,22.43
2023-02-13T13:20:46.893Z,23.27
2023-02-13T13:23:18.838Z,21.10
2023-02-13T13:25:58.329Z,22.62
2023-02-13T13:28:30.307Z,21.44
2023-02-13T13:30:58.883Z,22.58
2023-02-13T13:33:26.853Z,22.33
2023-02-13T13:36:01.881Z,23.75
2023-02-13T13:38:39.957Z,21.86
2023-02-13T13:41:18.191Z,24.45
2023-02-13T13:43:47.712Z,21.64
2023-02-13T13:46:26.697Z,21.60
2023-02-13T13:48:56.497Z,23.74
2023-02-13T13:51:23.840Z,24.39
2023-02-13T13:54:00.255Z,23.00
2023-02-13T13:56:47.423Z,21.80
2023-02-13T13:59:19.345Z,22.19
2023-02-13T14:01:45.975Z,21.94
2023-02-13T14:05:01.919Z,23.51
2023-02-13T14:07:38.061Z,20.54
2023-02-13T14:10:06.367Z,22.69
2023-02-13T14:12:32.986Z,22.52
2023-02-13T14:15:00.395Z,20.27
2023-02-13T14:17:45.198Z,21.82
2023-02-13T14:20:40.385Z,21.87
2023-02-13T14:23:08.764Z,21.65
2023-02-13T14:25:35.452Z,23.07
2023-02-13T14:28:06.343Z,20.67
2023-02-13T14:30:35.554Z,20.39
2023-02-13T14:33:26.952Z,22.21
2023-02-13T14:36:20.674Z,21.68
2023-02-13T14:38:56.963Z,20.79
2023-02-13T14:41:55.874Z,21.16
2023-02-13T14:44:45.902Z,22.03
2023-02-13T14:47:27.350Z,22.35
2023-02-13T14:49:56.499Z,21.77
2023-02-13T14:52:27.835Z,22.80
2023-02-13T14:55:31.202Z,22.08
2023-02-13T14:58:07.693Z,21.18
2023-02-13T15:00:43.287Z,20.54
2023-02-13T15:03:31.695Z,21.49
2023-02-13T15:06:04.503Z,19.70
2023-02-13T15:08:36.489Z,18.26
2023-02-13T15:11:03.188Z,17.96
2023-02-13T15:13:41.177Z,17.18
2023-02-13T15:16:14.001Z,15.67
2023-02-13T15:18:48.781Z,14.87
2023-02-13T15:21:19.832Z,14.74
2023-02-13T15:23:51.011Z,14.78
2023-02-13T15:26:23.854Z,14.74
2023-02-13T15:29:17.492Z,14.59
2023-02-13T15:31:52.897Z,14.54
2023-02-13T15:34:35.836Z,13.85
2023-02-13T15:37:03.323Z,13.98
2023-02-13T15:39:33.143Z,13.79
2023-02-13T15:42:03.063Z,14.00
2023-02-13T15:44:37.743Z,14.28
2023-02-13T15:47:07.625Z,14.03
2023-02-13T15:49:39.657Z,14.16
2023-02-13T15:52:09.115Z,14.08
2023-02-13T15:54:36.130Z,13.93
2023-02-13T15:57:06.455Z,13.58
2023-02-13T15:59:38.450Z,13.72
2023-02-13T16:02:13.047Z,13.92
2023-02-13T16:04:41.581Z,13.68
2023-02-13T16:07:13.320Z,13.51
2023-02-13T16:09:39.958Z,13.57
2023-02-13T16:12:20.729Z,13.16
2023-02-13T16:14:52.211Z,13.03
2023-02-13T16:17:28.088Z,13.14
2023-02-13T16:20:16.027Z,13.17
2023-02-13T16:22:59.144Z,12.88
2023-02-13T16:25:30.764Z,12.72
2023-02-13T16:28:09.418Z,12.62
2023-02-13T16:30:40.934Z,12.54
2023-02-13T16:33:16.515Z,12.35
2023-02-13T16:36:08.735Z,12.59
2023-02-13T16:38:40.910Z,12.09
2023-02-13T16:41:19.515Z,12.47
2023-02-13T16:43:51.676Z,12.00
2023-02-13T16:46:38.618Z,12.04
2023-02-13T16:49:10.961Z,12.00
2023-02-13T16:51:38.758Z,11.98
2023-02-13T16:54:11.438Z,12.09
2023-02-13T16:56:40.380Z,12.03
2023-02-13T16:59:34.323Z,11.99
2023-02-13T17:02:16.045Z,11.83
2023-02-13T17:04:45.277Z,11.69
2023-02-13T17:07:17.432Z,11.65
2023-02-13T17:09:44.150Z,11.49
2023-02-13T17:12:14.842Z,11.72
2023-02-13T17:14:42.030Z,11.48
2023-02-13T17:17:30.099Z,11.59
2023-02-13T17:19:57.462Z,11.34
2023-02-13T17:22:36.988Z,11.35
2023-02-13T17:25:07.578Z,11.18
2023-02-13T17:27:34.876Z,11.25
2023-02-13T17:30:01.630Z,11.34
2023-02-13T17:32:28.677Z,11.27
2023-02-13T17:34:56.242Z,11.02
2023-02-13T17:37:25.792Z,11.09
2023-02-13T17:39:53.648Z,11.09
2023-02-13T17:42:23.526Z,10.84
2023-02-13T17:44:50.303Z,10.73
2023-02-13T17:47:18.383Z,10.90
2023-02-13T17:49:45.117Z,10.92
2023-02-13T17:52:16.787Z,10.67
2023-02-13T17:54:44.730Z,10.70
2023-02-13T17:57:13.168Z,10.60
2023-02-13T17:59:40.196Z,10.44
2023-02-13T18:02:14.302Z,10.17
2023-02-13T18:04:40.990Z,10.06
2023-02-13T18:07:07.857Z,10.10
2023-02-13T18:09:34.302Z,10.26
2023-02-13T18:12:05.731Z,10.13
2023-02-13T18:14:33.741Z,10.32
2023-02-13T18:17:00.414Z,10.27
2023-02-13T18:19:27.121Z,10.12
2023-02-13T18:21:53.582Z,10.17
2023-02-13T18:24:20.197Z,9.96
2023-02-13T18:26:46.899Z,9.76
2023-02-13T18:29:13.446Z,9.86
2023-02-13T18:31:40.209Z,9.83
2023-02-13T18:34:07.080Z,9.88
2023-02-13T18:36:33.848Z,10.07
2023-02-13T18:39:00.433Z,9.98
2023-02-13T18:41:27.033Z,9.62
2023-02-13T18:43:56.886Z,9.82
2023-02-13T18:46:23.827Z,9.49
2023-02-13T18:48:50.347Z,9.52
2023-02-13T18:51:18.572Z,9.50
2023-02-13T18:53:45.126Z,9.37
2023-02-13T18:56:12.431Z,9.28
2023-02-13T18:58:39.194Z,9.06
2023-02-13T19:01:06.875Z,9.08
2023-02-13T19:03:33.622Z,9.00
2023-02-13T19:06:04.405Z,8.92
2023-02-13T19:08:31.049Z,8.92
2023-02-13T19:11:00.664Z,8.85
2023-02-13T19:13:27.238Z,9.53
2023-02-13T19:15:53.922Z,9.87
2023-02-13T19:18:20.546Z,9.86
2023-02-13T19:20:47.081Z,9.22
2023-02-13T19:23:13.599Z,8.76
2023-02-13T19:25:40.205Z,8.44
2023-02-13T19:28:06.766Z,8.28
2023-02-13T19:30:33.384Z,8.06
2023-02-13T19:32:59.954Z,7.95
2023-02-13T19:35:26.737Z,7.80
2023-02-13T19:37:54.444Z,7.71
2023-02-13T19:40:21.147Z,7.70
2023-02-13T19:42:47.709Z,7.61
2023-02-13T19:45:14.239Z,7.56
2023-02-13T19:47:41.017Z,7.42
2023-02-13T19:50:08.299Z,7.39
2023-02-13T19:52:35.200Z,7.31
2023-02-13T19:55:02.171Z,7.17
2023-02-13T19:57:28.871Z,7.02
2023-02-13T19:59:55.398Z,7.06
2023-02-13T20:02:22.406Z,7.24
2023-02-13T20:04:49.236Z,7.19
2023-02-13T20:07:15.819Z,7.22
2023-02-13T20:09:43.317Z,7.05
2023-02-13T20:12:09.789Z,6.80
2023-02-13T20:14:36.573Z,6.75
2023-02-13T20:17:03.304Z,6.95
2023-02-13T20:19:30.896Z,7.03
2023-02-13T20:21:57.734Z,6.99
2023-02-13T20:24:24.372Z,6.83
2023-02-13T20:26:50.975Z,6.76
2023-02-13T20:29:17.860Z,6.73
2023-02-13T20:31:44.499Z,6.98
2023-02-13T20:34:11.431Z,7.00
2023-02-13T20:36:38.168Z,6.94
2023-02-13T20:39:07.816Z,6.76
2023-02-13T20:41:37.123Z,6.54
2023-02-13T20:44:10.342Z,6.47
2023-02-13T20:46:39.157Z,6.41
2023-02-13T20:49:05.753Z,6.27
2023-02-13T20:51:32.394Z,6.52
2023-02-13T20:54:00.251Z,6.53
2023-02-13T20:56:28.304Z,6.53
2023-02-13T20:59:00.145Z,6.70
2023-02-13T21:01:30.031Z,6.40
2023-02-13T21:03:56.813Z,6.28
2023-02-13T21:06:26.742Z,6.21
2023-02-13T21:08:53.417Z,6.03
2023-02-13T21:11:20.748Z,6.02
2023-02-13T21:13:47.997Z,5.93
2023-02-13T21:16:20.362Z,5.79
2023-02-13T21:18:49.315Z,5.90
2023-02-13T21:21:16.709Z,5.86
2023-02-13T21:23:45.288Z,5.85
2023-02-13T21:26:14.919Z,5.78
2023-02-13T21:28:43.450Z,5.74
2023-02-13T21:31:14.170Z,5.62
2023-02-13T21:33:40.993Z,5.61
2023-02-13T21:36:09.922Z,5.62
2023-02-13T21:38:37.888Z,5.57
2023-02-13T21:41:15.810Z,5.50
2023-02-13T21:43:46.648Z,5.48
2023-02-13T21:46:21.329Z,5.57
2023-02-13T21:48:51.700Z,5.54
2023-02-13T21:51:19.716Z,5.55
2023-02-13T21:53:47.887Z,5.45
2023-02-13T21:56:16.969Z,5.37
2023-02-13T21:58:44.598Z,5.05
2023-02-13T22:01:26.742Z,5.16
2023-02-13T22:03:57.867Z,5.00
2023-02-13T22:06:26.847Z,4.96
2023-02-13T22:09:02.586Z,5.23
2023-02-13T22:11:29.673Z,5.45
2023-02-13T22:13:59.989Z,5.47
2023-02-13T22:16:27.006Z,5.54
2023-02-13T22:18:54.752Z,5.48
2023-02-13T22:21:23.404Z,5.53
2023-02-13T22:23:50.640Z,5.40
2023-02-13T22:26:25.578Z,5.32
2023-02-13T22:28:53.723Z,5.45
2023-02-13T22:31:24.213Z,5.60
2023-02-13T22:34:02.893Z,5.60
2023-02-13T22:36:34.108Z,5.41
2023-02-13T22:39:00.930Z,5.27
2023-02-13T22:41:28.204Z,5.19
2023-02-13T22:43:55.004Z,5.00
2023-02-13T22:46:25.039Z,5.04
2023-02-13T22:48:52.413Z,5.14
2023-02-13T22:51:22.574Z,5.19
2023-02-13T22:53:49.414Z,5.07
2023-02-13T22:56:16.144Z,4.88
2023-02-13T22:58:42.730Z,4.73
2023-02-13T23:01:20.036Z,4.68
2023-02-13T23:03:46.799Z,4.66
2023-02-13T23:06:15.375Z,4.63
2023-02-13T23:08:42.581Z,4.65
2023-02-13T23:11:35.585Z,4.79
2023-02-13T23:14:02.516Z,4.57
2023-02-13T23:16:49.173Z,4.48
2023-02-13T23:19:16.012Z,4.45
2023-02-13T23:21:42.564Z,4.51
2023-02-13T23:24:09.054Z,4.50
2023-02-13T23:26:35.621Z,4.37
2023-02-13T23:29:02.183Z,4.45
2023-02-13T23:31:28.828Z,4.29
2023-02-13T23:33:55.423Z,4.13
2023-02-13T23:36:21.911Z,3.74
2023-02-13T23:38:48.795Z,3.83
2023-02-13T23:41:15.312Z,3.92
2023-02-13T23:43:41.791Z,3.96
2023-02-13T23:46:08.359Z,4.03
2023-02-13T23:48:34.920Z,4.13
2023-02-13T23:51:02.199Z,4.11
2023-02-13T23:53:29.263Z,4.07
2023-02-13T23:55:55.858Z,3.93
2023-02-13T23:58:22.457Z,3.86
